createdAt,value
2018-02-16T00:00:27.317Z,31.79
2018-02-16T00:01:36.056Z,31.98
2018-02-16T00:02:45.281Z,31.98
2018-02-16T00:03:54.266Z,32.07
2018-02-16T00:05:03.801Z,31.88
2018-02-16T00:06:13.023Z,31.88
2018-02-16T00:07:22.024Z,31.99
2018-02-16T00:08:30.768Z,31.8
2018-02-16T00:09:39.876Z,31.79
2018-02-16T00:10:48.877Z,31.8
2018-02-16T00:11:57.606Z,31.7
2018-02-16T00:13:06.634Z,31.61
2018-02-16T00:14:15.640Z,31.7
2018-02-16T00:15:24.643Z,31.61
2018-02-16T00:16:33.933Z,31.51
2018-02-16T00:17:43.127Z,31.51
2018-02-16T00:18:52.428Z,31.51
2018-02-16T00:20:01.399Z,31.51
2018-02-16T00:21:10.385Z,31.51
2018-02-16T00:22:19.088Z,31.41
2018-02-16T00:23:28.562Z,31.41
2018-02-16T00:24:37.518Z,31.41
2018-02-16T00:25:46.744Z,31.41
2018-02-16T00:26:55.437Z,31.51
2018-02-16T00:28:04.398Z,31.43
2018-02-16T00:29:13.102Z,31.24
2018-02-16T00:30:22.355Z,31.41
2018-02-16T00:31:31.153Z,31.32
2018-02-16T00:32:40.126Z,31.41
2018-02-16T00:33:49.408Z,31.41
2018-02-16T00:34:58.788Z,31.41
2018-02-16T00:36:07.596Z,31.43
2018-02-16T00:37:16.304Z,31.43
2018-02-16T00:38:25.251Z,31.41
2018-02-16T00:39:34.238Z,31.51
2018-02-16T00:40:43.304Z,31.53
2018-02-16T00:41:52.321Z,31.51
2018-02-16T00:43:01.633Z,31.53
2018-02-16T00:44:10.930Z,31.41
2018-02-16T00:45:20.163Z,31.32
2018-02-16T00:46:29.173Z,31.41
2018-02-16T00:47:37.904Z,31.32
2018-02-16T00:48:46.938Z,31.62
2018-02-16T00:49:55.931Z,31.53
2018-02-16T00:51:04.683Z,31.51
2018-02-16T00:52:13.382Z,31.51
2018-02-16T00:53:22.869Z,31.62
2018-02-16T00:54:31.842Z,31.7
2018-02-16T00:55:40.704Z,31.61
2018-02-16T00:56:49.438Z,31.51
2018-02-16T00:57:58.230Z,31.7
2018-02-16T00:59:07.478Z,31.7
2018-02-16T01:00:16.516Z,31.7
2018-02-16T01:01:25.484Z,31.7
2018-02-16T01:02:34.747Z,31.8
2018-02-16T01:03:43.831Z,31.8
2018-02-16T01:04:53.156Z,31.7
2018-02-16T01:06:02.224Z,31.61
2018-02-16T01:07:11.312Z,31.8
2018-02-16T01:08:20.034Z,31.61
2018-02-16T01:09:29.536Z,31.9
2018-02-16T01:10:38.870Z,31.9
2018-02-16T01:11:48.396Z,31.8
2018-02-16T01:12:57.721Z,31.8
2018-02-16T01:14:06.764Z,31.8
2018-02-16T01:15:15.750Z,31.9
2018-02-16T01:16:24.718Z,32.09
2018-02-16T01:17:33.431Z,32.09
2018-02-16T01:18:42.422Z,32.09
2018-02-16T01:19:51.525Z,32.09
2018-02-16T01:21:00.738Z,31.99
2018-02-16T01:22:10.006Z,32.09
2018-02-16T01:23:19.783Z,32.09
2018-02-16T01:24:28.746Z,31.99
2018-02-16T01:25:37.470Z,32.28
2018-02-16T01:26:46.223Z,31.99
2018-02-16T01:27:55.192Z,32.09
2018-02-16T01:29:04.748Z,32.09
2018-02-16T01:30:13.449Z,31.99
2018-02-16T01:31:22.440Z,32.38
2018-02-16T01:32:31.460Z,32.28
2018-02-16T01:33:40.201Z,32.28
2018-02-16T01:34:49.572Z,32.28
2018-02-16T01:35:58.553Z,32.28
2018-02-16T01:37:07.545Z,32.28
2018-02-16T01:38:16.532Z,32.38
2018-02-16T01:39:25.564Z,32.38
2018-02-16T01:40:34.525Z,32.38
2018-02-16T01:41:43.271Z,32.36
2018-02-16T01:42:52.298Z,32.46
2018-02-16T01:44:01.007Z,32.47
2018-02-16T01:45:10.330Z,32.38
2018-02-16T01:46:19.556Z,32.28
2018-02-16T01:47:28.533Z,32.26
2018-02-16T01:48:37.767Z,32.28
2018-02-16T01:49:46.750Z,32.28
2018-02-16T01:50:55.472Z,32.57
2018-02-16T01:52:04.485Z,32.38
2018-02-16T01:53:13.519Z,32.55
2018-02-16T01:54:22.200Z,32.65
2018-02-16T01:55:31.190Z,32.46
2018-02-16T01:56:40.504Z,32.55
2018-02-16T01:57:49.459Z,32.46
2018-02-16T01:58:58.474Z,32.55
2018-02-16T02:00:07.752Z,32.46
2018-02-16T02:01:16.980Z,32.46
2018-02-16T02:02:26.018Z,32.55
2018-02-16T02:03:35.069Z,32.55
2018-02-16T02:04:44.836Z,32.55
2018-02-16T02:05:53.538Z,32.36
2018-02-16T02:07:02.241Z,32.46
2018-02-16T02:08:11.511Z,32.46
2018-02-16T02:09:21.039Z,32.55
2018-02-16T02:10:30.264Z,32.46
2018-02-16T02:11:39.001Z,32.55
2018-02-16T02:12:48.008Z,32.46
2018-02-16T02:13:56.960Z,32.46
2018-02-16T02:15:05.661Z,32.55
2018-02-16T02:16:14.432Z,32.36
2018-02-16T02:17:23.160Z,32.36
2018-02-16T02:18:32.376Z,32.55
2018-02-16T02:19:41.106Z,32.36
2018-02-16T02:20:50.870Z,32.46
2018-02-16T02:21:59.847Z,32.46
2018-02-16T02:23:08.892Z,32.36
2018-02-16T02:24:17.862Z,32.46
2018-02-16T02:25:27.082Z,32.55
2018-02-16T02:26:36.299Z,32.46
2018-02-16T02:27:45.563Z,32.36
2018-02-16T02:28:54.794Z,32.46
2018-02-16T02:30:04.094Z,32.46
2018-02-16T02:31:13.103Z,32.46
2018-02-16T02:32:22.331Z,32.36
2018-02-16T02:33:31.050Z,32.36
2018-02-16T02:34:40.079Z,32.46
2018-02-16T02:35:49.316Z,32.46
2018-02-16T02:36:58.669Z,32.46
2018-02-16T02:38:07.905Z,32.36
2018-02-16T02:39:16.905Z,32.36
2018-02-16T02:40:26.681Z,32.84
2018-02-16T02:41:35.915Z,32.84
2018-02-16T02:42:44.887Z,32.75
2018-02-16T02:43:54.672Z,32.46
2018-02-16T02:45:03.663Z,32.65
2018-02-16T02:46:12.873Z,32.84
2018-02-16T02:47:22.120Z,32.55
2018-02-16T02:48:30.827Z,32.75
2018-02-16T02:49:39.807Z,32.84
2018-02-16T02:50:49.593Z,32.65
2018-02-16T02:51:58.867Z,32.65
2018-02-16T02:53:08.097Z,32.36
2018-02-16T02:54:17.836Z,32.65
2018-02-16T02:55:27.082Z,32.93
2018-02-16T02:56:36.312Z,32.55
2018-02-16T02:57:45.839Z,32.55
2018-02-16T02:58:55.073Z,32.84
2018-02-16T03:00:04.313Z,32.36
2018-02-16T03:01:13.025Z,32.46
2018-02-16T03:02:21.996Z,33.03
2018-02-16T03:03:31.228Z,32.93
2018-02-16T03:04:40.510Z,32.75
2018-02-16T03:05:49.188Z,32.84
2018-02-16T03:06:58.398Z,32.84
2018-02-16T03:08:07.366Z,32.65
2018-02-16T03:09:16.864Z,32.75
2018-02-16T03:10:25.551Z,32.84
2018-02-16T03:11:34.501Z,32.84
2018-02-16T03:12:44.277Z,32.55
2018-02-16T03:13:53.233Z,32.55
2018-02-16T03:15:01.945Z,32.65
2018-02-16T03:16:10.911Z,32.75
2018-02-16T03:17:19.866Z,32.65
2018-02-16T03:18:29.365Z,32.93
2018-02-16T03:19:38.071Z,32.93
2018-02-16T03:20:47.040Z,32.93
2018-02-16T03:21:56.020Z,32.93
2018-02-16T03:23:05.291Z,32.93
2018-02-16T03:24:14.242Z,32.84
2018-02-16T03:25:23.493Z,32.93
2018-02-16T03:26:33.245Z,32.93
2018-02-16T03:27:42.526Z,32.75
2018-02-16T03:28:51.527Z,32.93
2018-02-16T03:30:01.048Z,32.75
2018-02-16T03:31:10.356Z,32.75
2018-02-16T03:32:19.570Z,32.93
2018-02-16T03:33:28.547Z,32.65
2018-02-16T03:34:37.298Z,32.65
2018-02-16T03:35:46.249Z,32.65
2018-02-16T03:36:55.470Z,32.65
2018-02-16T03:38:04.450Z,32.75
2018-02-16T03:39:13.392Z,32.65
2018-02-16T03:40:22.355Z,32.84
2018-02-16T03:41:31.341Z,32.75
2018-02-16T03:42:40.594Z,32.55
2018-02-16T03:43:49.316Z,32.75
2018-02-16T03:44:58.108Z,32.93
2018-02-16T03:46:07.103Z,32.65
2018-02-16T03:47:15.833Z,32.65
2018-02-16T03:48:24.800Z,32.84
2018-02-16T03:49:33.510Z,32.65
2018-02-16T03:50:42.227Z,32.93
2018-02-16T03:51:51.469Z,32.93
2018-02-16T03:53:00.998Z,32.84
2018-02-16T03:54:10.246Z,32.93
2018-02-16T03:55:19.226Z,32.93
2018-02-16T03:56:28.194Z,32.93
2018-02-16T03:57:37.183Z,32.93
2018-02-16T03:58:46.136Z,32.75
2018-02-16T03:59:55.400Z,32.65
2018-02-16T04:01:04.350Z,32.55
2018-02-16T04:02:13.319Z,32.84
2018-02-16T04:03:22.305Z,32.84
2018-02-16T04:04:31.629Z,32.75
2018-02-16T04:05:40.384Z,32.65
2018-02-16T04:06:49.365Z,32.75
2018-02-16T04:07:58.650Z,32.75
2018-02-16T04:09:07.364Z,32.84
2018-02-16T04:10:16.321Z,32.84
2018-02-16T04:11:25.785Z,32.75
2018-02-16T04:12:34.772Z,32.84
2018-02-16T04:13:43.721Z,32.75
2018-02-16T04:14:52.716Z,32.75
2018-02-16T04:16:01.937Z,32.84
2018-02-16T04:17:11.168Z,32.75
2018-02-16T04:18:20.152Z,32.75
2018-02-16T04:19:28.879Z,32.75
2018-02-16T04:20:37.839Z,32.75
2018-02-16T04:21:46.830Z,32.84
2018-02-16T04:22:55.581Z,32.75
2018-02-16T04:24:04.794Z,32.65
2018-02-16T04:25:13.834Z,32.75
2018-02-16T04:26:22.817Z,32.84
2018-02-16T04:27:32.346Z,32.75
2018-02-16T04:28:41.069Z,32.75
2018-02-16T04:29:50.131Z,32.84
2018-02-16T04:30:59.390Z,32.75
2018-02-16T04:32:08.097Z,32.84
2018-02-16T04:33:17.867Z,32.75
2018-02-16T04:34:26.862Z,32.75
2018-02-16T04:35:35.840Z,32.84
2018-02-16T04:36:45.104Z,32.75
2018-02-16T04:37:54.371Z,32.65
2018-02-16T04:39:04.149Z,32.75
2018-02-16T04:40:13.495Z,32.84
2018-02-16T04:41:22.525Z,32.75
2018-02-16T04:42:32.009Z,32.84
2018-02-16T04:43:40.983Z,32.84
2018-02-16T04:44:49.960Z,32.84
2018-02-16T04:45:58.989Z,32.75
2018-02-16T04:47:07.733Z,32.75
2018-02-16T04:48:16.950Z,32.84
2018-02-16T04:49:26.235Z,32.75
2018-02-16T04:50:35.473Z,32.84
2018-02-16T04:51:44.432Z,32.75
2018-02-16T04:52:53.659Z,32.84
2018-02-16T04:54:02.678Z,32.65
2018-02-16T04:55:11.940Z,32.84
2018-02-16T04:56:21.182Z,32.93
2018-02-16T04:57:30.192Z,32.84
2018-02-16T04:58:38.904Z,32.75
2018-02-16T04:59:47.951Z,32.84
2018-02-16T05:00:56.754Z,32.93
2018-02-16T05:02:06.292Z,32.84
2018-02-16T05:03:15.249Z,33.03
2018-02-16T05:04:24.204Z,33.03
2018-02-16T05:05:33.429Z,33.03
2018-02-16T05:06:42.665Z,32.84
2018-02-16T05:07:51.354Z,32.93
2018-02-16T05:09:00.044Z,33.13
2018-02-16T05:10:09.603Z,33.13
2018-02-16T05:11:19.077Z,33.03
2018-02-16T05:12:28.628Z,32.93
2018-02-16T05:13:37.855Z,33.03
2018-02-16T05:14:47.078Z,32.93
2018-02-16T05:15:56.074Z,32.93
2018-02-16T05:17:05.305Z,32.93
2018-02-16T05:18:14.395Z,32.93
2018-02-16T05:19:23.617Z,32.93
2018-02-16T05:20:32.922Z,32.93
2018-02-16T05:21:41.653Z,32.93
2018-02-16T05:22:50.606Z,33.13
2018-02-16T05:24:00.218Z,32.93
2018-02-16T05:25:09.493Z,32.93
2018-02-16T05:26:18.980Z,32.93
2018-02-16T05:27:28.005Z,32.93
2018-02-16T05:28:36.685Z,33.03
2018-02-16T05:29:45.894Z,33.13
2018-02-16T05:30:55.119Z,33.13
2018-02-16T05:32:04.634Z,32.93
2018-02-16T05:33:13.601Z,32.93
2018-02-16T05:34:22.617Z,33.03
2018-02-16T05:35:31.819Z,33.13
2018-02-16T05:36:40.516Z,32.93
2018-02-16T05:37:49.307Z,32.84
2018-02-16T05:38:58.511Z,33.13
2018-02-16T05:40:07.468Z,32.36
2018-02-16T05:41:16.417Z,32.55
2018-02-16T05:42:26.213Z,32.46
2018-02-16T05:43:35.150Z,32.28
2018-02-16T05:44:44.632Z,32.18
2018-02-16T05:45:53.870Z,31.99
2018-02-16T05:47:03.092Z,31.9
2018-02-16T05:48:12.026Z,31.99
2018-02-16T05:49:20.697Z,31.7
2018-02-16T05:50:29.427Z,31.72
2018-02-16T05:51:38.679Z,31.62
2018-02-16T05:52:48.458Z,31.53
2018-02-16T05:53:57.966Z,31.53
2018-02-16T05:55:06.678Z,31.43
2018-02-16T05:56:16.420Z,31.43
2018-02-16T05:57:25.624Z,31.43
2018-02-16T05:58:34.317Z,31.24
2018-02-16T05:59:43.336Z,31.24
2018-02-16T06:00:52.597Z,31.06
2018-02-16T06:02:01.607Z,31.05
2018-02-16T06:03:10.562Z,31.06
2018-02-16T06:04:19.255Z,30.77
2018-02-16T06:05:28.216Z,30.97
2018-02-16T06:06:37.182Z,30.68
2018-02-16T06:07:46.665Z,30.87
2018-02-16T06:08:56.148Z,30.68
2018-02-16T06:10:05.191Z,30.68
2018-02-16T06:11:13.910Z,30.69
2018-02-16T06:12:22.922Z,30.79
2018-02-16T06:13:31.606Z,30.69
2018-02-16T06:14:40.555Z,30.69
2018-02-16T06:15:50.062Z,30.5
2018-02-16T06:16:59.303Z,30.4
2018-02-16T06:18:08.523Z,30.5
2018-02-16T06:19:17.750Z,30.4
2018-02-16T06:20:27.295Z,30.4
2018-02-16T06:21:36.500Z,30.5
2018-02-16T06:22:45.520Z,30.4
2018-02-16T06:23:54.306Z,29.93
2018-02-16T06:25:03.528Z,30.31
2018-02-16T06:26:12.502Z,30.04
2018-02-16T06:27:21.716Z,30.13
2018-02-16T06:28:30.920Z,30.22
2018-02-16T06:29:40.446Z,30.32
2018-02-16T06:30:49.931Z,30.13
2018-02-16T06:31:59.218Z,30.13
2018-02-16T06:33:07.940Z,30.13
2018-02-16T06:34:17.195Z,29.94
2018-02-16T06:35:26.679Z,30.04
2018-02-16T06:36:35.360Z,29.84
2018-02-16T06:37:44.438Z,29.65
2018-02-16T06:38:53.161Z,29.86
2018-02-16T06:40:02.417Z,29.86
2018-02-16T06:41:11.387Z,29.95
2018-02-16T06:42:20.332Z,29.47
2018-02-16T06:43:29.592Z,29.57
2018-02-16T06:44:39.069Z,29.66
2018-02-16T06:45:48.543Z,29.57
2018-02-16T06:46:57.214Z,29.57
2018-02-16T06:48:05.993Z,29.68
2018-02-16T06:49:15.010Z,29.86
2018-02-16T06:50:23.821Z,29.68
2018-02-16T06:51:32.537Z,29.68
2018-02-16T06:52:41.483Z,29.77
2018-02-16T06:53:50.162Z,29.86
2018-02-16T06:54:58.866Z,29.68
2018-02-16T06:56:08.623Z,29.87
2018-02-16T06:57:18.122Z,29.68
2018-02-16T06:58:26.833Z,29.87
2018-02-16T06:59:36.062Z,29.68
2018-02-16T07:00:45.017Z,29.68
2018-02-16T07:01:54.534Z,29.77
2018-02-16T07:03:03.484Z,29.58
2018-02-16T07:04:12.598Z,29.58
2018-02-16T07:05:21.565Z,29.68
2018-02-16T07:06:30.829Z,29.58
2018-02-16T07:07:39.509Z,29.49
2018-02-16T07:08:48.759Z,29.97
2018-02-16T07:09:58.000Z,29.97
2018-02-16T07:11:06.992Z,29.87
2018-02-16T07:12:15.932Z,29.87
2018-02-16T07:13:24.933Z,29.68
2018-02-16T07:14:33.929Z,29.77
2018-02-16T07:15:42.911Z,30.16
2018-02-16T07:16:52.138Z,30.16
2018-02-16T07:18:01.117Z,30.16
2018-02-16T07:19:10.093Z,30.07
2018-02-16T07:20:19.041Z,30.07
2018-02-16T07:21:28.280Z,30.35
2018-02-16T07:22:37.559Z,30.34
2018-02-16T07:23:47.060Z,30.45
2018-02-16T07:24:55.799Z,30.45
2018-02-16T07:26:05.073Z,30.34
2018-02-16T07:27:14.343Z,30.63
2018-02-16T07:28:23.365Z,30.63
2018-02-16T07:29:32.118Z,30.82
2018-02-16T07:30:41.350Z,31.01
2018-02-16T07:31:50.624Z,30.82
2018-02-16T07:32:59.371Z,31.11
2018-02-16T07:34:08.086Z,31.01
2018-02-16T07:35:17.296Z,31.4
2018-02-16T07:36:26.257Z,31.29
2018-02-16T07:37:35.212Z,31.29
2018-02-16T07:38:44.185Z,31.38
2018-02-16T07:39:53.129Z,31.38
2018-02-16T07:41:02.078Z,31.48
2018-02-16T07:42:11.306Z,31.57
2018-02-16T07:43:20.003Z,31.57
2018-02-16T07:44:28.961Z,31.57
2018-02-16T07:45:37.658Z,31.57
2018-02-16T07:46:46.611Z,31.57
2018-02-16T07:47:56.122Z,31.87
2018-02-16T07:49:05.151Z,31.96
2018-02-16T07:50:14.099Z,31.77
2018-02-16T07:51:23.042Z,31.95
2018-02-16T07:52:31.984Z,31.87
2018-02-16T07:53:41.001Z,31.95
2018-02-16T07:54:49.703Z,31.87
2018-02-16T07:55:58.406Z,32.14
2018-02-16T07:57:07.443Z,32.04
2018-02-16T07:58:16.646Z,32.23
2018-02-16T07:59:26.129Z,32.23
2018-02-16T08:00:35.356Z,32.04
2018-02-16T08:01:44.059Z,32.23
2018-02-16T08:02:53.036Z,32.14
2018-02-16T08:04:02.010Z,32.52
2018-02-16T08:05:11.273Z,32.43
2018-02-16T08:06:19.977Z,32.33
2018-02-16T08:07:29.225Z,32.43
2018-02-16T08:08:37.925Z,32.52
2018-02-16T08:09:47.163Z,32.52
2018-02-16T08:10:55.869Z,32.52
2018-02-16T08:12:05.201Z,32.52
2018-02-16T08:13:14.141Z,32.43
2018-02-16T08:14:22.840Z,32.41
2018-02-16T08:15:32.018Z,32.79
2018-02-16T08:16:40.800Z,32.81
2018-02-16T08:17:49.772Z,33
2018-02-16T08:18:58.978Z,32.51
2018-02-16T08:20:07.934Z,32.9
2018-02-16T08:21:17.176Z,32.89
2018-02-16T08:22:26.409Z,32.7
2018-02-16T08:23:35.926Z,32.51
2018-02-16T08:24:45.152Z,32.7
2018-02-16T08:25:53.884Z,32.6
2018-02-16T08:27:02.640Z,32.7
2018-02-16T08:28:11.336Z,32.89
2018-02-16T08:29:20.027Z,32.7
2018-02-16T08:30:28.979Z,32.7
2018-02-16T08:31:37.958Z,32.7
2018-02-16T08:32:46.907Z,32.79
2018-02-16T08:33:55.937Z,32.51
2018-02-16T08:35:04.900Z,32.98
2018-02-16T08:36:14.143Z,32.7
2018-02-16T08:37:23.361Z,32.98
2018-02-16T08:38:32.878Z,32.7
2018-02-16T08:39:41.840Z,32.79
2018-02-16T08:40:50.782Z,32.98
2018-02-16T08:41:59.727Z,32.7
2018-02-16T08:43:08.668Z,32.98
2018-02-16T08:44:17.630Z,32.98
2018-02-16T08:45:26.848Z,32.7
2018-02-16T08:46:35.818Z,32.51
2018-02-16T08:47:44.779Z,32.7
2018-02-16T08:48:54.057Z,32.79
2018-02-16T08:50:03.258Z,32.79
2018-02-16T08:51:12.031Z,32.89
2018-02-16T08:52:20.738Z,32.79
2018-02-16T08:53:29.959Z,32.79
2018-02-16T08:54:39.431Z,32.7
2018-02-16T08:55:48.411Z,32.7
2018-02-16T08:56:57.348Z,32.7
2018-02-16T08:58:06.328Z,32.7
2018-02-16T08:59:15.293Z,32.89
2018-02-16T09:00:24.547Z,33.08
2018-02-16T09:01:33.773Z,32.79
2018-02-16T09:02:42.977Z,32.98
2018-02-16T09:03:51.924Z,32.7
2018-02-16T09:05:00.653Z,32.7
2018-02-16T09:06:09.609Z,32.7
2018-02-16T09:07:19.087Z,32.79
2018-02-16T09:08:28.300Z,32.89
2018-02-16T09:09:37.514Z,32.7
2018-02-16T09:10:47.238Z,32.7
2018-02-16T09:11:56.179Z,32.79
2018-02-16T09:13:05.398Z,32.79
2018-02-16T09:14:14.394Z,32.98
2018-02-16T09:15:23.367Z,33.08
2018-02-16T09:16:32.050Z,32.98
2018-02-16T09:17:41.262Z,32.79
2018-02-16T09:18:49.936Z,32.62
2018-02-16T09:19:59.147Z,32.89
2018-02-16T09:21:07.857Z,32.79
2018-02-16T09:22:16.826Z,32.51
2018-02-16T09:23:25.780Z,32.41
2018-02-16T09:24:34.999Z,32.51
2018-02-16T09:25:43.987Z,32.51
2018-02-16T09:26:53.204Z,32.51
2018-02-16T09:28:02.223Z,32.6
2018-02-16T09:29:11.167Z,32.51
2018-02-16T09:30:19.900Z,32.51
2018-02-16T09:31:28.643Z,32.51
2018-02-16T09:32:37.321Z,32.6
2018-02-16T09:33:46.274Z,32.6
2018-02-16T09:34:54.977Z,32.51
2018-02-16T09:36:04.205Z,32.51
2018-02-16T09:37:13.157Z,32.51
2018-02-16T09:38:22.383Z,32.51
2018-02-16T09:39:31.071Z,32.51
2018-02-16T09:40:40.334Z,32.31
2018-02-16T09:41:49.312Z,32.51
2018-02-16T09:42:58.248Z,32.51
2018-02-16T09:44:07.490Z,32.41
2018-02-16T09:45:16.459Z,32.51
2018-02-16T09:46:25.442Z,32.31
2018-02-16T09:47:34.397Z,32.31
2018-02-16T09:48:43.353Z,32.43
2018-02-16T09:49:52.594Z,32.41
2018-02-16T09:51:01.298Z,32.31
2018-02-16T09:52:10.389Z,32.51
2018-02-16T09:53:19.335Z,32.31
2018-02-16T09:54:28.581Z,32.41
2018-02-16T09:55:37.478Z,32.21
2018-02-16T09:56:46.430Z,32.31
2018-02-16T09:57:55.390Z,32.6
2018-02-16T09:59:04.347Z,32.51
2018-02-16T10:00:13.811Z,32.6
2018-02-16T10:01:22.789Z,32.51
2018-02-16T10:02:31.743Z,32.51
2018-02-16T10:03:40.974Z,32.51
2018-02-16T10:04:49.769Z,32.51
2018-02-16T10:05:58.750Z,32.51
2018-02-16T10:07:07.970Z,32.51
2018-02-16T10:08:16.959Z,32.41
2018-02-16T10:09:25.659Z,32.41
2018-02-16T10:10:34.616Z,32.79
2018-02-16T10:11:43.849Z,32.6
2018-02-16T10:12:52.571Z,32.89
2018-02-16T10:14:01.828Z,32.79
2018-02-16T10:15:10.775Z,32.79
2018-02-16T10:16:19.999Z,32.6
2018-02-16T10:17:29.230Z,32.98
2018-02-16T10:18:37.930Z,32.98
2018-02-16T10:19:47.132Z,32.98
2018-02-16T10:20:55.804Z,32.98
2018-02-16T10:22:04.498Z,32.79
2018-02-16T10:23:13.182Z,32.7
2018-02-16T10:24:21.898Z,32.89
2018-02-16T10:25:30.850Z,32.79
2018-02-16T10:26:39.822Z,32.7
2018-02-16T10:27:49.039Z,32.98
2018-02-16T10:28:58.283Z,32.98
2018-02-16T10:30:07.242Z,32.98
2018-02-16T10:31:16.210Z,32.98
2018-02-16T10:32:25.194Z,32.89
2018-02-16T10:33:34.475Z,32.79
2018-02-16T10:34:43.420Z,32.79
2018-02-16T10:35:52.145Z,32.6
2018-02-16T10:37:01.129Z,32.7
2018-02-16T10:38:10.070Z,32.79
2018-02-16T10:39:18.762Z,32.79
2018-02-16T10:40:27.722Z,32.7
2018-02-16T10:41:37.224Z,32.7
2018-02-16T10:42:46.167Z,32.79
2018-02-16T10:43:54.922Z,32.7
2018-02-16T10:45:04.126Z,32.79
2018-02-16T10:46:12.884Z,32.79
2018-02-16T10:47:21.574Z,32.79
2018-02-16T10:48:30.782Z,32.79
2018-02-16T10:49:39.742Z,32.97
2018-02-16T10:50:49.076Z,32.7
2018-02-16T10:51:58.586Z,32.98
2018-02-16T10:53:07.546Z,32.68
2018-02-16T10:54:16.510Z,32.98
2018-02-16T10:55:25.739Z,32.49
2018-02-16T10:56:34.697Z,32.87
2018-02-16T10:57:44.179Z,32.79
2018-02-16T10:58:53.406Z,32.79
2018-02-16T11:00:02.649Z,32.6
2018-02-16T11:01:11.638Z,32.7
2018-02-16T11:02:20.365Z,32.98
2018-02-16T11:03:29.084Z,32.59
2018-02-16T11:04:38.323Z,32.59
2018-02-16T11:05:47.549Z,32.6
2018-02-16T11:06:56.527Z,32.78
2018-02-16T11:08:06.009Z,32.68
2018-02-16T11:09:15.237Z,32.79
2018-02-16T11:10:23.945Z,32.89
2018-02-16T11:11:33.169Z,32.7
2018-02-16T11:12:42.131Z,32.98
2018-02-16T11:13:51.098Z,32.89
2018-02-16T11:15:00.099Z,32.98
2018-02-16T11:16:09.144Z,32.79
2018-02-16T11:17:18.528Z,32.79
2018-02-16T11:18:27.553Z,32.6
2018-02-16T11:19:36.477Z,32.51
2018-02-16T11:20:46.254Z,32.79
2018-02-16T11:21:55.520Z,32.6
2018-02-16T11:23:04.488Z,32.41
2018-02-16T11:24:13.475Z,32.7
2018-02-16T11:25:22.743Z,32.51
2018-02-16T11:26:31.713Z,32.51
2018-02-16T11:27:40.678Z,32.51
2018-02-16T11:28:49.692Z,32.41
2018-02-16T11:29:58.743Z,32.51
2018-02-16T11:31:07.711Z,32.51
2018-02-16T11:32:16.693Z,32.51
2018-02-16T11:33:25.695Z,32.51
2018-02-16T11:34:34.706Z,32.6
2018-02-16T11:35:44.503Z,32.51
2018-02-16T11:36:53.474Z,32.51
2018-02-16T11:38:02.217Z,32.6
2018-02-16T11:39:11.228Z,32.41
2018-02-16T11:40:20.815Z,32.51
2018-02-16T11:41:30.773Z,32.51
2018-02-16T11:42:39.898Z,32.51
2018-02-16T11:43:48.846Z,32.41
2018-02-16T11:44:57.801Z,32.79
2018-02-16T11:46:07.039Z,32.89
2018-02-16T11:47:16.013Z,32.6
2018-02-16T11:48:25.620Z,32.79
2018-02-16T11:49:34.435Z,32.51
2018-02-16T11:50:43.949Z,32.49
2018-02-16T11:51:52.960Z,32.97
2018-02-16T11:53:01.956Z,32.97
2018-02-16T11:54:10.679Z,32.79
2018-02-16T11:55:20.182Z,32.98
2018-02-16T11:56:29.163Z,32.78
2018-02-16T11:57:37.867Z,32.78
2018-02-16T11:58:47.110Z,32.59
2018-02-16T11:59:55.917Z,32.68
2018-02-16T12:01:05.280Z,32.59
2018-02-16T12:02:14.260Z,32.97
2018-02-16T12:03:22.957Z,32.87
2018-02-16T12:04:32.165Z,32.87
2018-02-16T12:05:40.904Z,32.78
2018-02-16T12:06:50.142Z,32.78
2018-02-16T12:07:58.899Z,32.78
2018-02-16T12:09:07.617Z,32.87
2018-02-16T12:10:16.614Z,32.68
2018-02-16T12:11:25.290Z,32.78
2018-02-16T12:12:34.254Z,32.87
2018-02-16T12:13:43.545Z,32.68
2018-02-16T12:14:52.792Z,32.78
2018-02-16T12:16:02.280Z,32.87
2018-02-16T12:17:11.235Z,32.78
2018-02-16T12:18:20.460Z,32.78
2018-02-16T12:19:29.574Z,32.78
2018-02-16T12:20:38.790Z,32.97
2018-02-16T12:21:48.045Z,32.97
2018-02-16T12:22:57.567Z,32.87
2018-02-16T12:24:06.795Z,32.97
2018-02-16T12:25:15.480Z,32.97
2018-02-16T12:26:24.465Z,32.97
2018-02-16T12:27:33.981Z,32.97
2018-02-16T12:28:43.063Z,32.97
2018-02-16T12:29:52.644Z,33.07
2018-02-16T12:31:02.469Z,32.97
2018-02-16T12:32:11.446Z,32.87
2018-02-16T12:33:20.154Z,32.97
2018-02-16T12:34:29.431Z,32.87
2018-02-16T12:35:38.738Z,32.87
2018-02-16T12:36:47.906Z,32.78
2018-02-16T12:37:56.915Z,32.78
2018-02-16T12:39:06.153Z,32.87
2018-02-16T12:40:15.204Z,32.78
2018-02-16T12:41:24.156Z,32.59
2018-02-16T12:42:33.661Z,32.78
2018-02-16T12:43:42.664Z,32.59
2018-02-16T12:44:51.757Z,32.87
2018-02-16T12:46:00.935Z,32.68
2018-02-16T12:47:09.667Z,33.07
2018-02-16T12:48:19.204Z,32.97
2018-02-16T12:49:28.234Z,32.87
2018-02-16T12:50:37.492Z,32.68
2018-02-16T12:51:46.475Z,32.87
2018-02-16T12:52:55.730Z,32.97
2018-02-16T12:54:04.684Z,32.87
2018-02-16T12:55:13.736Z,33.07
2018-02-16T12:56:22.964Z,32.97
2018-02-16T12:57:32.012Z,32.78
2018-02-16T12:58:41.002Z,32.87
2018-02-16T12:59:50.548Z,32.49
2018-02-16T13:00:59.514Z,32.39
2018-02-16T13:02:08.463Z,32.49
2018-02-16T13:03:17.476Z,32.39
2018-02-16T13:04:26.176Z,32.59
2018-02-16T13:05:34.867Z,32.39
2018-02-16T13:06:44.342Z,32.49
2018-02-16T13:07:53.550Z,32.59
2018-02-16T13:09:02.283Z,32.49
2018-02-16T13:10:11.236Z,32.49
2018-02-16T13:11:20.213Z,32.49
2018-02-16T13:12:29.701Z,32.49
2018-02-16T13:13:38.643Z,32.49
2018-02-16T13:14:47.603Z,32.39
2018-02-16T13:15:56.310Z,32.68
2018-02-16T13:17:05.252Z,32.39
2018-02-16T13:18:14.457Z,32.78
2018-02-16T13:19:23.949Z,32.39
2018-02-16T13:20:33.178Z,32.87
2018-02-16T13:21:42.152Z,32.49
2018-02-16T13:22:51.109Z,32.49
2018-02-16T13:24:00.078Z,32.78
2018-02-16T13:25:09.337Z,32.59
2018-02-16T13:26:18.304Z,32.87
2018-02-16T13:27:27.515Z,32.59
2018-02-16T13:28:36.478Z,32.49
2018-02-16T13:29:45.217Z,32.87
2018-02-16T13:30:54.459Z,32.59
2018-02-16T13:32:03.442Z,32.97
2018-02-16T13:33:12.134Z,32.59
2018-02-16T13:34:21.639Z,32.87
2018-02-16T13:35:30.326Z,32.68
2018-02-16T13:36:39.025Z,32.68
2018-02-16T13:37:48.817Z,32.59
2018-02-16T13:38:57.554Z,32.59
2018-02-16T13:40:06.563Z,32.97
2018-02-16T13:41:15.555Z,32.97
2018-02-16T13:42:24.506Z,32.49
2018-02-16T13:43:33.718Z,32.97
2018-02-16T13:44:42.420Z,32.87
2018-02-16T13:45:51.099Z,32.49
2018-02-16T13:47:00.395Z,32.78
2018-02-16T13:48:09.625Z,32.87
2018-02-16T13:49:18.698Z,32.87
2018-02-16T13:50:27.671Z,32.87
2018-02-16T13:51:36.397Z,32.78
2018-02-16T13:52:45.125Z,32.87
2018-02-16T13:53:54.405Z,32.39
2018-02-16T13:55:03.412Z,32.87
2018-02-16T13:56:12.675Z,32.39
2018-02-16T13:57:22.157Z,32.39
2018-02-16T13:58:31.130Z,32.78
2018-02-16T13:59:40.131Z,32.39
2018-02-16T14:00:49.462Z,32.39
2018-02-16T14:01:59.005Z,32.78
2018-02-16T14:03:07.729Z,32.39
2018-02-16T14:04:17.420Z,32.49
2018-02-16T14:05:26.462Z,32.39
2018-02-16T14:06:35.158Z,32.68
2018-02-16T14:07:43.823Z,32.78
2018-02-16T14:08:52.800Z,32.68
2018-02-16T14:10:01.492Z,32.78
2018-02-16T14:11:10.467Z,32.78
2018-02-16T14:12:19.674Z,32.78
2018-02-16T14:13:28.383Z,32.78
2018-02-16T14:14:37.622Z,32.78
2018-02-16T14:15:46.376Z,32.78
2018-02-16T14:16:55.882Z,32.78
2018-02-16T14:18:04.607Z,32.39
2018-02-16T14:19:13.593Z,32.87
2018-02-16T14:20:22.639Z,32.87
2018-02-16T14:21:31.624Z,32.78
2018-02-16T14:22:40.848Z,32.59
2018-02-16T14:23:50.107Z,32.97
2018-02-16T14:24:58.809Z,32.59
2018-02-16T14:26:07.962Z,32.87
2018-02-16T14:27:16.967Z,32.87
2018-02-16T14:28:25.946Z,32.78
2018-02-16T14:29:34.713Z,32.97
2018-02-16T14:30:43.722Z,32.39
2018-02-16T14:31:52.702Z,32.87
2018-02-16T14:33:01.954Z,32.39
2018-02-16T14:34:10.944Z,32.39
2018-02-16T14:35:19.968Z,32.87
2018-02-16T14:36:29.236Z,32.87
2018-02-16T14:37:38.310Z,32.87
2018-02-16T14:38:47.831Z,32.78
2018-02-16T14:39:56.847Z,32.78
2018-02-16T14:41:06.102Z,32.87
2018-02-16T14:42:15.341Z,32.78
2018-02-16T14:43:24.079Z,32.39
2018-02-16T14:44:33.304Z,32.68
2018-02-16T14:45:42.287Z,32.49
2018-02-16T14:46:51.276Z,32.68
2018-02-16T14:48:00.759Z,32.78
2018-02-16T14:49:09.487Z,32.78
2018-02-16T14:50:18.248Z,32.78
2018-02-16T14:51:27.003Z,32.39
2018-02-16T14:52:35.986Z,32.39